Monroe, WI (53566)

8:50 AM CST on March 05, 2015 (GMT -0600)
WIDOT Monroe - STH 11 @ STH 69 | Change Station
CLOSE
Current Station
Personal Weather Station
Location: Monroe, WI
Elevation: 1075 ft
Nearby Weather Stations

Elev 1075 ft 42.62 °N, 89.64 °W | Updated 52 minutes ago

Clear
Clear
2 °F
Feels Like -7 °F
N
4
Wind Variable Wind from NW
Gusts 7.0 mph

Today
High -- | Low -- °F
--% Chance of Precip.
Yesterday
High -- | Low -- °F
Precip. -- in
6:27 AM 5:52 PM
Full, 100% visible
Pressure 30.45 in
Visibility 10.0 miles
Clouds Clear
Windchill -7 °F
Dew Point -8 °F
Humidity 62%
Rainfall in
Snow Depth Not available.
UV 2 out of 12
Pollen .50 out of 12
Air Quality Not available.
Flu Activity Not available.
METAR KEFT 051435Z AUTO 31005KT 10SM CLR M16/M21 A3045 RMK AO2

More Conditions Fewer Conditions

Pressure 30.45 in
Visibility 10.0 miles
Clouds Clear
Windchill -7 °F
Dew Point -8 °F
Humidity 62%
Rainfall in
Snow Depth Not available.
UV 2 out of 12
Pollen .50 out of 12
Air Quality Not available.
Flu Activity Not available.
METAR KEFT 051435Z AUTO 31005KT 10SM CLR M16/M21 A3045 RMK AO2

More Conditions Fewer Conditions

10-Day Weather Forecast

Almanac

Astronomy

Mar. 05, 2015 Rise Set
Actual Time
Civil Twilight
Nautical Twilight
Astronomical Twilight
Moon
Length of Visible Light
Length of Day
Tomorrow will be .
, % of the Moon is Illuminated

Today's Extremes

State Highs State Lows

Community

WunderPhotos

Upload Photos

1,802,789 photos uploaded!

WunderBlogs® & News

Nearby

Air Quality

  Air Quality AQ Index Pollutant
Not available.

Snow Depth

Station Depth Elevation

Earthquake Activity

City Distance Mag. Time & Date
Minimum magnitude displayed is 2.5.

Coastal Water Temperatures

Place Temperature

Nearby Weather Stations